Terminal Aerodrome Forecast
Issued by NWS Grand Junction, CO

Home | Current Version | Previous Version | Text Only | Print | Product List | Glossary On
Versions: 1 2 3 4 5 6 7 8 9 10 11 12 13 14 15 16 17
000
FTUS45 KGJT 272334
TAFGJT
TAF
KGJT 272334Z 2800/2824 27013KT P6SM FEW250
      TEMPO 2800/2802 30010G20KT
     FM280300 29005KT P6SM SCT250
     FM280500 02004KT P6SM FEW250
     FM281400 13008KT P6SM FEW250
     FM281800 25007KT P6SM FEW250
     FM282200 27018G27KT P6SM FEW250=

USA.gov is the U.S. government's official web portal to all federal, state and local government web resources and services.